Overview Statistics Trail Chart Weather Telemetry Raw packets
 

This is the latest recevied weather packets stored in our database for station/object LU4EGV-13. If no packets are shown the sender has not sent any weather packets the latest 10 day(s).

<< 9 10 11 12 13 14 15 >>
Time Temp. Humidity Pressure Rain* Wind** Luminosity Snow
1788526087 12.22° C 70% 1016.2 hPa 0 mm - - -
1788525480 11.11° C 73% 1016.4 hPa 0 mm - - -
1788524875 10.56° C 80% 1016.4 hPa 0 mm - - -
1788524268 10.56° C 83% 1016.4 hPa 0 mm - - -
1788523662 9.44° C 87% 1016.4 hPa 0 mm - - -
1788523056 9.44° C 90% 1016.4 hPa 0 mm - - -
1788522449 8.89° C 93% 1016.3 hPa 0 mm - - -
1788521843 8.33° C 94% 1016.2 hPa 0 mm - - -
1788521238 8.33° C 95% 1016.1 hPa 0 mm - - -
1788520631 7.78° C 96% 1015.8 hPa 0 mm - - -
1788520029 7.78° C 96% 1016 hPa 0 mm - - -
1788519418 7.78° C 96% 1015.7 hPa 0 mm - - -
1788518813 7.22° C 95% 1015.5 hPa 0 mm - - -
1788518207 7.22° C 95% 1015.6 hPa 0 mm - - -
1788517600 7.22° C 94% 1015.6 hPa 0 mm - - -
1788516995 7.22° C 94% 1015.5 hPa 0 mm - - -
1788516387 7.22° C 94% 1015.3 hPa 0 mm - - -
1788515784 7.22° C 94% 1015.5 hPa 0 mm - - -
1788515185 7.22° C 94% 1015.1 hPa 0 mm - - -
1788514569 7.22° C 94% 1015.1 hPa 0 mm - - -
1788513962 7.22° C 93% 1015 hPa 0 mm - - -
1788513356 7.22° C 93% 1015 hPa 0 mm - - -
1788512751 7.22° C 93% 1015 hPa 0 mm - - -
1788512145 7.78° C 93% 1014.9 hPa 0 mm - - -
1788511538 7.78° C 93% 1014.8 hPa 0 mm - - -

* Rain latest hour (hover to see other rain measurements)
** Current wind speed in m/s (hover to see current wind gust speed)